Time;durP1;ratioP1;P1;durP2;ratioP2;P2;SDS_P1;SDS_P2;PMS_P1;PMS_P2;Temp;Humidity;BMP_temperature;BMP_pressure;BME280_temperature;BME280_humidity;BME280_pressure;Samples;Min_cycle;Max_cycle;Signal;HPM_P1;HPM_P2
2022/12/06 00:01:37;;;;;;;26.88;15.15;;;1.30;99.90;;;-144.05;82.84;125687.94;5034534;28;20329;-83
2022/12/06 00:04:11;;;;;;;27.48;14.63;;;1.30;99.90;;;-144.05;82.65;125687.94;5032349;28;20033;-83
2022/12/06 00:06:46;;;;;;;32.70;15.48;;;1.30;99.90;;;-144.05;82.76;125687.94;5033943;28;20036;-82
2022/12/06 00:09:23;;;;;;;30.30;15.02;;;1.30;99.90;;;-144.05;82.57;125687.94;5033904;28;20503;-82
2022/12/06 00:11:50;;;;;;;36.10;16.95;;;1.30;99.90;;;-144.05;83.01;125687.94;5033634;28;20045;-81
2022/12/06 00:14:18;;;;;;;34.30;16.35;;;1.30;99.90;;;-144.05;82.52;125687.94;5033498;28;20033;-82
2022/12/06 00:16:45;;;;;;;33.30;17.08;;;1.30;99.90;;;-144.05;82.70;125687.94;5033404;28;20077;-81
2022/12/06 00:19:20;;;;;;;35.72;17.77;;;1.30;99.90;;;-144.05;82.53;125687.94;5033464;28;20550;-82
2022/12/06 00:21:47;;;;;;;36.65;18.33;;;1.30;99.90;;;-144.05;82.51;125687.94;5033392;28;20484;-82
2022/12/06 00:24:22;;;;;;;36.40;17.80;;;1.40;99.90;;;-144.05;82.34;125687.94;5032185;28;20477;-81
2022/12/06 00:26:49;;;;;;;37.28;17.60;;;1.40;99.90;;;-144.05;82.46;125687.94;5033337;28;20416;-82
2022/12/06 00:29:23;;;;;;;35.63;17.73;;;1.50;99.90;;;-144.05;81.95;125687.94;5032022;28;20040;-82
2022/12/06 00:31:49;;;;;;;41.33;18.63;;;1.50;99.90;;;-144.05;82.07;125687.94;5032949;28;20033;-83
2022/12/06 00:34:16;;;;;;;40.20;18.55;;;1.40;99.90;;;-144.05;82.27;125687.94;5032725;28;20132;-83
2022/12/06 00:36:42;;;;;;;40.28;19.25;;;1.40;99.90;;;-144.05;82.01;125687.94;5032658;28;20080;-82
2022/12/06 00:39:14;;;;;;;47.30;18.80;;;1.40;99.90;;;-144.05;82.54;125687.94;5032195;28;20053;-83
2022/12/06 00:41:41;;;;;;;47.17;22.50;;;1.40;99.90;;;-144.05;82.55;125687.94;5034219;28;20080;-82
2022/12/06 00:44:10;;;;;;;44.53;20.42;;;1.40;99.90;;;-144.05;82.36;125687.94;5032136;28;20509;-83
2022/12/06 00:46:38;;;;;;;42.00;20.08;;;1.40;99.90;;;-144.05;82.44;125687.94;5032140;28;20040;-81
2022/12/06 00:49:08;;;;;;;42.75;19.23;;;1.40;99.90;;;-144.05;82.57;125687.94;5034005;28;20086;-82
2022/12/06 00:51:36;;;;;;;40.75;18.33;;;1.40;99.90;;;-144.05;82.38;125687.94;5032251;28;20065;-81
2022/12/06 00:54:04;;;;;;;48.35;20.90;;;1.40;99.90;;;-144.05;82.67;125687.94;5032286;28;20032;-81
2022/12/06 00:56:31;;;;;;;50.20;20.92;;;1.40;99.90;;;-144.05;82.87;125687.94;5032271;28;20124;-82
2022/12/06 00:58:57;;;;;;;45.75;21.15;;;1.40;99.90;;;-144.05;82.69;125687.94;5033895;28;20477;-82
2022/12/06 01:01:29;;;;;;;46.00;20.23;;;1.40;99.90;;;-144.05;82.49;125687.94;5034389;28;20026;-82
2022/12/06 01:04:00;;;;;;;53.95;21.73;;;1.40;99.90;;;-144.05;82.61;125687.94;5031949;28;20131;-82
2022/12/06 01:06:32;;;;;;;57.58;21.73;;;1.40;99.90;;;-144.05;82.99;125687.94;5033528;28;20026;-82
2022/12/06 01:09:04;;;;;;;46.00;21.13;;;1.40;99.90;;;-144.05;83.03;125687.94;5032312;28;20029;-86
2022/12/06 01:11:31;;;;;;;45.75;21.48;;;1.40;99.90;;;-144.05;82.93;125687.94;5033440;28;20037;-83
2022/12/06 01:13:57;;;;;;;49.65;20.25;;;1.40;99.90;;;-144.05;82.99;125687.94;5031306;28;20028;-82
2022/12/06 01:16:28;;;;;;;47.50;21.08;;;1.40;99.90;;;-144.05;83.02;125687.94;5033303;28;20056;-85
2022/12/06 01:19:00;;;;;;;44.55;20.17;;;1.40;99.90;;;-144.05;82.99;125687.94;5033854;28;20030;-81
2022/12/06 01:21:28;;;;;;;54.22;21.50;;;1.40;99.90;;;-144.05;82.86;125687.94;5033248;28;20060;-82
2022/12/06 01:23:54;;;;;;;52.30;21.45;;;1.40;99.90;;;-144.05;82.78;125687.94;5033145;28;20028;-81
2022/12/06 01:26:29;;;;;;;47.22;19.77;;;1.50;99.90;;;-144.05;82.89;125687.94;5033139;28;20057;-84
2022/12/06 01:28:57;;;;;;;53.47;22.15;;;1.40;99.90;;;-144.05;82.88;125687.94;5031716;28;20038;-83
2022/12/06 01:31:23;;;;;;;66.25;23.05;;;1.40;99.90;;;-144.05;82.99;125687.94;5031763;28;20029;-82
2022/12/06 01:33:49;;;;;;;64.00;22.83;;;1.40;99.90;;;-144.05;83.02;125687.94;5033075;28;20075;-83
2022/12/06 01:36:24;;;;;;;66.93;22.27;;;1.40;99.90;;;-144.05;82.93;125687.94;5031774;28;20029;-83
2022/12/06 01:38:57;;;;;;;57.60;20.48;;;1.40;99.90;;;-144.05;83.03;125687.94;5033097;28;20025;-82
2022/12/06 01:41:27;;;;;;;50.45;21.33;;;1.50;99.90;;;-144.05;82.81;125687.94;5033002;28;20075;-82
2022/12/06 01:43:55;;;;;;;54.55;21.23;;;1.50;99.90;;;-144.05;83.04;125687.94;5031303;28;20029;-84
2022/12/06 01:46:35;;;;;;;52.45;20.90;;;1.50;99.90;;;-144.05;82.84;125687.94;5031778;28;20053;-82
2022/12/06 01:49:27;;;;;;;64.95;21.38;;;1.50;99.90;;;-144.05;83.05;125687.94;5033597;28;20106;-84
2022/12/06 01:52:01;;;;;;;66.00;23.08;;;1.50;99.90;;;-144.05;83.23;125687.94;5043000;28;20048;-87
2022/12/06 01:54:28;;;;;;;60.13;23.20;;;1.50;99.90;;;-144.05;82.91;125687.94;5052380;28;20128;-84
2022/12/06 01:56:58;;;;;;;59.67;22.77;;;1.50;99.90;;;-144.05;83.19;125687.94;5053088;28;20401;-87
2022/12/06 01:59:26;;;;;;;54.22;22.40;;;1.50;99.90;;;-144.05;83.21;125687.94;5040175;28;20075;-86
2022/12/06 02:01:53;;;;;;;48.78;20.30;;;1.60;99.90;;;-144.05;83.04;125687.94;5037055;28;20531;-84
2022/12/06 02:04:23;;;;;;;59.15;21.27;;;1.50;99.90;;;-144.05;83.26;125687.94;5037187;28;20022;-82
2022/12/06 02:06:53;;;;;;;67.32;23.85;;;1.50;99.90;;;-144.05;83.21;125687.94;5036506;28;20029;-82
2022/12/06 02:09:21;;;;;;;74.28;24.55;;;1.60;99.90;;;-144.05;83.07;125687.94;5036583;28;20480;-81
2022/12/06 02:11:47;;;;;;;56.28;22.15;;;1.50;99.90;;;-144.05;83.21;125687.94;5036386;28;20056;-84
2022/12/06 02:14:23;;;;;;;53.72;21.77;;;1.50;99.90;;;-144.05;83.24;125687.94;5037623;28;20572;-84
2022/12/06 02:17:48;;;;;;;52.10;21.30;;;1.50;99.90;;;-144.05;82.94;125687.94;5036904;28;20116;-84
2022/12/06 02:20:14;;;;;;;60.75;20.85;;;1.50;99.90;;;-144.05;83.26;125687.94;5022018;28;20463;-81
2022/12/06 02:23:38;;;;;;;57.78;22.10;;;1.50;99.90;;;-144.05;83.17;125687.94;5035776;28;20030;-81
2022/12/06 02:26:28;;;;;;;55.05;19.08;;;1.50;99.90;;;-144.05;83.04;125687.94;5037316;28;20025;-83
2022/12/06 02:29:29;;;;;;;58.70;21.77;;;1.50;99.90;;;-144.05;83.00;125687.94;5035481;28;20099;-82
2022/12/06 02:32:16;;;;;;;48.80;18.88;;;1.50;99.90;;;-144.05;83.09;125687.94;5036266;28;20342;-83
2022/12/06 02:35:10;;;;;;;47.35;19.00;;;1.50;99.90;;;-144.05;83.19;125687.94;5035595;28;20053;-85
2022/12/06 02:38:06;;;;;;;45.50;19.15;;;1.50;99.90;;;-144.05;83.36;125687.94;5035834;28;20124;-82
2022/12/06 02:40:42;;;;;;;43.40;18.45;;;1.50;99.90;;;-144.05;83.24;125687.94;5037482;28;20441;-83
2022/12/06 02:43:18;;;;;;;50.17;19.25;;;1.60;99.90;;;-144.05;83.05;125687.94;5043990;28;20034;-82
2022/12/06 02:45:55;;;;;;;44.28;18.52;;;1.60;99.90;;;-144.05;83.15;125687.94;5037160;28;20359;-82
2022/12/06 02:48:25;;;;;;;41.83;19.83;;;1.50;99.90;;;-144.05;83.38;125687.94;5036571;28;20025;-82
2022/12/06 02:51:03;;;;;;;43.03;19.38;;;1.60;99.90;;;-144.05;83.44;125687.94;5036322;28;20238;-85
2022/12/06 02:53:38;;;;;;;41.15;17.33;;;1.60;99.90;;;-144.05;83.08;125687.94;5036554;28;20093;-83
2022/12/06 02:56:07;;;;;;;41.88;17.58;;;1.60;99.90;;;-144.05;83.19;125687.94;5035374;28;20568;-82
2022/12/06 02:58:37;;;;;;;41.85;19.00;;;1.50;99.90;;;-144.05;83.16;125687.94;5035581;28;20029;-83
2022/12/06 03:01:16;;;;;;;42.28;18.75;;;1.60;99.90;;;-144.05;83.46;125687.94;5035276;28;20040;-81
2022/12/06 03:03:48;;;;;;;38.90;18.50;;;1.60;99.90;;;-144.05;83.28;125687.94;5035393;28;20048;-81
2022/12/06 03:06:44;;;;;;;40.17;17.17;;;1.60;99.90;;;-144.05;83.19;125687.94;5035610;28;20029;-83
2022/12/06 03:09:39;;;;;;;40.35;18.10;;;1.60;99.90;;;-144.05;83.23;125687.94;5036661;28;20038;-82
2022/12/06 03:12:23;;;;;;;41.78;18.63;;;1.60;99.90;;;-144.05;83.34;125687.94;5036462;28;20044;-84
2022/12/06 03:15:10;;;;;;;42.05;16.75;;;1.60;99.90;;;-144.05;83.15;125687.94;5037739;28;20690;-84
2022/12/06 03:18:08;;;;;;;35.83;16.55;;;1.60;99.90;;;-144.05;83.44;125687.94;5035184;28;20036;-85
2022/12/06 03:21:19;;;;;;;35.42;15.82;;;1.60;99.90;;;-144.05;83.21;125687.94;5035580;28;20033;-85
2022/12/06 03:23:50;;;;;;;37.03;17.10;;;1.60;99.90;;;-144.05;83.15;125687.94;5036408;28;20029;-83
2022/12/06 03:26:31;;;;;;;34.03;15.98;;;1.60;99.90;;;-144.05;83.38;125687.94;5036556;28;20033;-82
2022/12/06 03:29:02;;;;;;;41.75;17.50;;;1.60;99.90;;;-144.05;83.22;125687.94;5038915;28;20053;-84
2022/12/06 03:31:37;;;;;;;35.38;15.75;;;1.60;99.90;;;-144.05;83.28;125687.94;5035874;28;20033;-85
2022/12/06 03:34:31;;;;;;;43.80;18.60;;;1.60;99.90;;;-144.05;83.52;125687.94;5035982;28;20127;-83
2022/12/06 03:37:03;;;;;;;37.88;17.75;;;1.60;99.90;;;-144.05;83.47;125687.94;5037087;28;20033;-83
2022/12/06 03:39:45;;;;;;;44.85;17.63;;;1.70;99.90;;;-144.05;83.24;125687.94;5037374;28;20021;-84
2022/12/06 03:42:13;;;;;;;41.47;18.00;;;1.60;99.90;;;-144.05;83.31;125687.94;5035490;28;20030;-84
2022/12/06 03:44:38;;;;;;;42.97;18.60;;;1.70;99.90;;;-144.05;83.62;125687.94;5035525;28;20029;-84
2022/12/06 03:47:19;;;;;;;41.78;17.92;;;1.60;99.90;;;-144.05;83.44;125687.94;5035483;28;20388;-85
2022/12/06 03:50:01;;;;;;;44.83;19.73;;;1.70;99.90;;;-144.05;83.67;125687.94;5037866;28;20029;-85
2022/12/06 03:52:29;;;;;;;46.25;18.50;;;1.70;99.90;;;-144.05;83.57;125687.94;5052077;28;20025;-85
2022/12/06 03:54:55;;;;;;;38.80;17.38;;;1.70;99.90;;;-144.05;83.42;125687.94;5052802;28;20104;-85
2022/12/06 03:57:21;;;;;;;42.95;19.55;;;1.70;99.90;;;-144.05;83.73;125687.94;5052476;28;20029;-85
2022/12/06 03:59:47;;;;;;;42.47;17.48;;;1.70;99.90;;;-144.05;83.61;125687.94;5052723;28;20029;-83
2022/12/06 04:02:13;;;;;;;37.63;15.93;;;1.80;99.90;;;-144.05;83.51;125687.94;5052852;28;20041;-83
2022/12/06 04:04:39;;;;;;;31.15;15.73;;;1.70;99.90;;;-144.05;83.58;125687.94;5051763;28;20064;-83
2022/12/06 04:07:06;;;;;;;53.30;19.48;;;1.70;99.90;;;-144.05;83.56;125687.94;5034872;28;20025;-82
2022/12/06 04:15:05;;;;;;;36.55;16.63;;;1.80;99.90;;;-144.05;83.51;125687.94;4996513;28;20153;-86
2022/12/06 04:20:17;;;;;;;55.65;19.08;;;1.80;99.90;;;-144.05;83.88;125687.94;4996998;28;20046;-86
2022/12/06 04:25:27;;;;;;;48.05;17.70;;;1.80;99.90;;;-144.05;83.64;125687.94;4999186;28;20033;-86
2022/12/06 04:38:51;;;;;;;95.53;21.83;;;1.80;99.90;;;-144.05;83.72;125687.94;5002335;28;20041;-85
2022/12/06 04:44:04;;;;;;;103.13;20.55;;;1.80;99.90;;;-144.05;83.75;125687.94;4996126;28;20053;-85
2022/12/06 04:46:30;;;;;;;43.42;15.57;;;1.80;99.90;;;-144.05;83.55;125687.94;4993995;28;20034;-82
2022/12/06 04:48:56;;;;;;;56.83;19.42;;;1.80;99.90;;;-144.05;83.80;125687.94;4993222;28;20093;-83
2022/12/06 04:51:23;;;;;;;49.28;16.92;;;1.80;99.90;;;-144.05;83.68;125687.94;4996258;28;20146;-84
2022/12/06 04:53:49;;;;;;;97.82;20.73;;;1.80;99.90;;;-144.05;83.71;125687.94;4995383;28;20038;-84
2022/12/06 04:56:15;;;;;;;69.97;18.75;;;1.80;99.90;;;-144.05;83.84;125687.94;4994984;28;20034;-85
2022/12/06 04:58:42;;;;;;;67.68;18.75;;;1.80;99.90;;;-144.05;83.71;125687.94;4995496;28;20026;-85
2022/12/06 05:01:08;;;;;;;40.33;16.73;;;1.80;99.90;;;-144.05;83.72;125687.94;4997170;28;20110;-85
2022/12/06 05:03:37;;;;;;;96.15;21.88;;;1.80;99.90;;;-144.05;83.84;125687.94;4996244;28;20034;-85
2022/12/06 05:06:04;;;;;;;87.07;20.98;;;1.80;99.90;;;-144.05;83.97;125687.94;4996141;28;20483;-85
2022/12/06 05:08:30;;;;;;;60.88;19.00;;;1.80;99.90;;;-144.05;83.68;125687.94;4995938;28;20034;-87
2022/12/06 05:10:56;;;;;;;73.88;19.65;;;1.80;99.90;;;-144.05;83.83;125687.94;4997414;28;20060;-86
2022/12/06 05:13:23;;;;;;;94.07;20.80;;;1.90;99.90;;;-144.05;83.91;125687.94;4997561;28;20088;-87
2022/12/06 05:16:01;;;;;;;98.75;20.60;;;1.80;99.90;;;-144.05;83.69;125687.94;5012487;28;20034;-85
2022/12/06 05:18:28;;;;;;;77.88;20.42;;;1.80;99.90;;;-144.05;83.86;125687.94;4996600;28;20117;-86
2022/12/06 05:21:06;;;;;;;70.30;20.73;;;1.80;99.90;;;-144.05;84.05;125687.94;5008808;28;20059;-81
2022/12/06 05:23:34;;;;;;;64.28;20.05;;;1.80;99.90;;;-144.05;83.92;125687.94;5006732;28;20026;-83
2022/12/06 05:26:06;;;;;;;58.50;18.48;;;1.80;99.90;;;-144.05;83.83;125687.94;4995487;28;20026;-84
2022/12/06 05:28:33;;;;;;;89.10;20.63;;;1.80;99.90;;;-144.05;84.04;125687.94;4995864;28;20030;-81
2022/12/06 05:31:00;;;;;;;99.38;22.02;;;1.80;99.90;;;-144.05;83.96;125687.94;4996736;28;20045;-81
2022/12/06 05:33:27;;;;;;;51.25;18.48;;;1.90;99.90;;;-144.05;84.30;125687.94;4999752;28;20178;-84
2022/12/06 05:35:53;;;;;;;44.92;18.92;;;1.90;99.90;;;-144.05;83.98;125687.94;4998385;28;20094;-84
2022/12/06 05:38:20;;;;;;;65.30;20.25;;;1.90;99.90;;;-144.05;84.01;125687.94;4997530;28;20509;-83
2022/12/06 05:40:47;;;;;;;45.67;17.98;;;1.90;99.90;;;-144.05;83.89;125687.94;4998821;28;20034;-83
2022/12/06 05:43:14;;;;;;;61.40;18.60;;;1.90;99.90;;;-144.05;83.93;125687.94;4998549;28;20034;-83
2022/12/06 05:45:41;;;;;;;68.28;20.98;;;1.90;99.90;;;-144.05;84.31;125687.94;4998054;28;20066;-85
2022/12/06 05:48:08;;;;;;;59.03;19.75;;;1.90;99.90;;;-144.05;84.13;125687.94;4997977;28;20030;-82
2022/12/06 05:50:35;;;;;;;62.70;19.77;;;1.90;99.90;;;-144.05;83.96;125687.94;4997925;28;20042;-83
2022/12/06 05:53:04;;;;;;;52.10;18.55;;;1.90;99.90;;;-144.05;83.90;125687.94;4999874;28;20446;-82
2022/12/06 05:55:31;;;;;;;50.80;18.80;;;1.90;99.90;;;-144.05;84.26;125687.94;4999106;28;20034;-83
2022/12/06 05:57:57;;;;;;;54.60;19.85;;;2.00;99.90;;;-144.05;84.17;125687.94;4998523;28;20486;-83
2022/12/06 06:00:31;;;;;;;56.22;20.52;;;2.00;99.90;;;-144.05;84.31;125687.94;4998407;28;20034;-84
2022/12/06 06:03:08;;;;;;;58.60;20.38;;;2.00;99.90;;;-144.05;84.32;125687.94;5000051;28;20031;-84
2022/12/06 06:05:36;;;;;;;55.63;18.58;;;2.00;99.90;;;-144.05;84.14;125687.94;4998738;28;20062;-82
2022/12/06 06:08:07;;;;;;;80.20;20.80;;;2.00;99.90;;;-144.05;84.46;125687.94;5016722;28;20030;-83
2022/12/06 06:10:40;;;;;;;57.88;18.55;;;2.10;99.90;;;-144.05;84.47;125687.94;4999269;28;20042;-83
2022/12/06 06:14:39;;;;;;;64.63;20.60;;;2.00;99.90;;;-144.05;84.18;125687.94;4997663;28;20498;-84
2022/12/06 06:17:08;;;;;;;69.85;19.65;;;2.00;99.90;;;-144.05;84.16;125687.94;4970750;28;20164;-83
2022/12/06 06:19:51;;;;;;;79.40;19.90;;;2.10;99.90;;;-144.05;84.41;125687.94;4999010;28;20034;-83
2022/12/06 06:22:18;;;;;;;55.80;18.42;;;2.00;99.90;;;-144.05;84.09;125687.94;4998032;28;20041;-83
2022/12/06 06:25:04;;;;;;;;;;;;;;;;;;;;;
2022/12/06 06:27:51;;;;;;;43.70;17.63;;;2.00;99.90;;;-144.05;84.46;125687.94;4998423;28;20027;-83
2022/12/06 06:30:32;;;;;;;65.85;20.88;;;2.00;99.90;;;-144.05;84.44;125687.94;4999090;28;20030;-85
2022/12/06 06:33:12;;;;;;;53.33;19.30;;;2.00;99.90;;;-144.05;84.66;125687.94;5000145;28;20041;-83
2022/12/06 06:35:39;;;;;;;89.07;22.83;;;2.10;99.90;;;-144.05;84.62;125687.94;4998062;28;20497;-83
2022/12/06 06:38:06;;;;;;;55.38;19.15;;;2.10;99.90;;;-144.05;84.70;125687.94;5016486;28;20495;-85
2022/12/06 06:40:34;;;;;;;52.85;20.40;;;2.10;99.90;;;-144.05;84.24;125687.94;4998189;28;20030;-83
2022/12/06 06:43:31;;;;;;;;;;;;;;;;;;;;;
2022/12/06 06:46:08;;;;;;;76.95;21.30;;;2.10;99.90;;;-144.05;84.28;125687.94;4999013;28;20113;-85
2022/12/06 06:49:18;;;;;;;85.05;22.27;;;2.20;99.90;;;-144.05;84.43;125687.94;5013841;28;20505;-84
2022/12/06 06:52:43;;;;;;;92.45;22.13;;;2.10;99.90;;;-144.05;84.69;125687.94;4996812;28;20038;-83
2022/12/06 06:55:15;;;;;;;47.45;19.50;;;2.20;99.90;;;-144.05;84.64;125687.94;4956113;28;20047;-85
2022/12/06 06:57:41;;;;;;;136.73;26.17;;;2.20;99.90;;;-144.05;84.57;125687.94;4975014;28;20406;-84
2022/12/06 07:00:25;;;;;;;72.95;23.00;;;2.20;99.90;;;-144.05;84.76;125687.94;4996687;28;20031;-84
2022/12/06 07:03:09;;;;;;;56.95;19.58;;;2.20;99.90;;;-144.05;84.62;125687.94;4996873;28;20026;-84
2022/12/06 07:05:51;;;;;;;71.85;22.50;;;2.30;99.90;;;-144.05;84.56;125687.94;4976651;28;20038;-83
2022/12/06 07:08:58;;;;;;;;;;;;;;;;;;;;;
2022/12/06 07:11:49;;;;;;;;;;;2.30;99.90;;;-144.05;84.19;125687.94;4977715;28;20116;-84
2022/12/06 07:16:17;;;;;;;;;;;;;;;;;;;;;
2022/12/06 07:18:46;;;;;;;91.32;24.00;;;2.30;99.90;;;-144.05;84.62;125687.94;4978279;28;20137;-84
2022/12/06 07:21:16;;;;;;;60.05;20.95;;;2.20;99.90;;;-144.05;84.54;125687.94;4962985;28;20058;-86
2022/12/06 07:23:42;;;;;;;96.90;24.73;;;2.20;99.90;;;-144.05;84.64;125687.94;4979591;28;20053;-86
2022/12/06 07:26:29;;;;;;;58.00;21.70;;;2.30;99.90;;;-144.05;84.96;125687.94;5016740;28;20038;-86
2022/12/06 07:29:01;;;;;;;84.22;25.20;;;2.30;99.90;;;-144.05;84.87;125687.94;5015973;28;20069;-84
2022/12/06 07:31:29;;;;;;;70.75;23.02;;;2.30;99.90;;;-144.05;84.76;125687.94;4999762;28;20065;-85
2022/12/06 07:34:00;;;;;;;61.03;22.83;;;2.30;99.90;;;-144.05;84.61;125687.94;4996729;28;20470;-86
2022/12/06 07:36:30;;;;;;;56.72;20.40;;;2.30;99.90;;;-144.05;84.75;125687.94;4997528;28;20061;-85
2022/12/06 07:38:59;;;;;;;91.20;24.83;;;2.30;99.90;;;-144.05;84.67;125687.94;4997539;28;20034;-86
2022/12/06 07:47:05;;;;;;;68.68;23.27;;;2.30;99.90;;;-144.05;84.81;125687.94;4999417;28;20102;-83
2022/12/06 07:49:34;;;;;;;61.92;23.30;;;2.30;99.90;;;-144.05;85.07;125687.94;4997692;28;20034;-83
2022/12/06 07:52:01;;;;;;;72.70;22.92;;;2.40;99.90;;;-144.05;84.70;125687.94;4997154;28;20034;-85
2022/12/06 07:54:27;;;;;;;78.70;24.17;;;2.50;99.90;;;-144.05;84.84;125687.94;4998027;28;20030;-85
2022/12/06 07:56:55;;;;;;;74.22;23.98;;;2.40;99.90;;;-144.05;84.81;125687.94;5013935;28;20057;-83
2022/12/06 07:59:21;;;;;;;67.75;22.83;;;2.50;99.90;;;-144.05;84.82;125687.94;4996724;28;20105;-84
2022/12/06 08:01:47;;;;;;;62.42;21.88;;;2.50;99.90;;;-144.05;84.72;125687.94;4998107;28;20069;-86
2022/12/06 08:04:13;;;;;;;85.57;29.55;;;2.50;99.90;;;-144.05;85.21;125687.94;4998613;28;20041;-86
2022/12/06 08:06:42;;;;;;;66.20;24.95;;;2.50;99.90;;;-144.05;84.82;125687.94;4997812;28;20038;-85
2022/12/06 08:09:08;;;;;;;69.93;24.13;;;2.50;99.90;;;-144.05;85.06;125687.94;4998588;28;20229;-84
2022/12/06 08:11:34;;;;;;;84.82;27.40;;;2.50;99.90;;;-144.05;85.14;125687.94;4998392;28;20577;-85
2022/12/06 08:14:01;;;;;;;74.32;24.13;;;2.50;99.90;;;-144.05;85.00;125687.94;4997857;28;20037;-84
2022/12/06 08:16:27;;;;;;;90.55;28.70;;;2.60;99.90;;;-144.05;85.14;125687.94;4998368;28;20030;-86
2022/12/06 08:18:55;;;;;;;79.65;28.50;;;2.60;99.90;;;-144.05;85.02;125687.94;4996816;28;20121;-87
2022/12/06 08:21:21;;;;;;;72.60;24.63;;;2.60;99.90;;;-144.05;84.97;125687.94;4999564;28;20027;-86
2022/12/06 08:23:47;;;;;;;76.00;26.40;;;2.60;99.90;;;-144.05;85.24;125687.94;4999627;28;20482;-85
2022/12/06 08:26:15;;;;;;;69.50;23.77;;;2.60;99.90;;;-144.05;85.24;125687.94;4998973;28;20034;-85
2022/12/06 08:28:42;;;;;;;53.13;22.15;;;2.60;99.90;;;-144.05;84.92;125687.94;4997564;28;20113;-87
2022/12/06 08:31:15;;;;;;;76.38;21.80;;;2.60;99.90;;;-144.05;85.09;125687.94;4998543;28;20034;-86
2022/12/06 08:33:41;;;;;;;69.05;24.65;;;2.50;99.90;;;-144.05;85.04;125687.94;4996368;28;20033;-86
2022/12/06 08:36:12;;;;;;;90.10;27.00;;;2.60;99.90;;;-144.05;85.21;125687.94;4995616;28;20026;-85
2022/12/06 08:38:40;;;;;;;70.63;22.85;;;2.60;99.90;;;-144.05;85.15;125687.94;4994981;28;20033;-87
2022/12/06 08:43:54;;;;;;;76.00;23.25;;;2.60;99.90;;;-144.05;85.35;125687.94;4996620;28;20045;-84
2022/12/06 08:46:22;;;;;;;64.82;22.17;;;2.60;99.90;;;-144.05;85.41;125687.94;4997133;28;20036;-85
2022/12/06 08:48:49;;;;;;;77.15;24.23;;;2.70;99.90;;;-144.05;85.36;125687.94;4996734;28;20038;-87
2022/12/06 08:51:15;;;;;;;58.40;20.95;;;2.70;99.90;;;-144.05;85.28;125687.94;4996623;28;20057;-85
2022/12/06 08:53:41;;;;;;;67.20;22.67;;;2.70;99.90;;;-144.05;85.41;125687.94;4998540;28;20041;-86
2022/12/06 08:56:07;;;;;;;70.05;23.33;;;2.80;99.90;;;-144.05;85.18;125687.94;4996773;28;20281;-85
2022/12/06 08:58:33;;;;;;;68.43;23.08;;;2.70;99.90;;;-144.05;85.41;125687.94;4996547;28;20026;-83
2022/12/06 09:00:59;;;;;;;70.00;23.20;;;2.80;99.90;;;-144.05;85.63;125687.94;4997106;28;20089;-85
2022/12/06 09:03:25;;;;;;;87.68;26.25;;;2.80;99.90;;;-144.05;85.64;125687.94;4995626;28;20102;-85
2022/12/06 09:05:51;;;;;;;72.65;25.02;;;2.80;99.90;;;-144.05;85.42;125687.94;4996177;28;20505;-86
2022/12/06 09:08:17;;;;;;;80.20;28.52;;;2.80;99.90;;;-144.05;85.54;125687.94;4997362;28;20034;-84
2022/12/06 09:10:43;;;;;;;68.20;25.23;;;2.90;99.90;;;-144.05;85.59;125687.94;4996365;28;20065;-87
2022/12/06 09:13:09;;;;;;;95.45;29.35;;;3.00;99.90;;;-144.05;85.36;125687.94;4997240;28;20042;-84
2022/12/06 09:15:37;;;;;;;60.28;23.35;;;3.00;99.90;;;-144.05;85.44;125687.94;4995205;28;20042;-85
2022/12/06 09:18:03;;;;;;;65.80;23.67;;;2.90;99.90;;;-144.05;85.47;125687.94;5012199;28;20036;-84
2022/12/06 09:20:29;;;;;;;69.70;24.40;;;3.00;99.90;;;-144.05;85.50;125687.94;4995802;28;20034;-85
2022/12/06 09:22:54;;;;;;;67.07;22.67;;;2.90;99.90;;;-144.05;85.56;125687.94;4996181;28;20031;-84
2022/12/06 09:25:20;;;;;;;61.15;23.00;;;3.00;99.90;;;-144.05;85.61;125687.94;4996757;28;20090;-86
2022/12/06 09:27:47;;;;;;;61.30;22.40;;;3.00;99.90;;;-144.05;85.85;125687.94;4996590;28;20064;-86
2022/12/06 09:30:14;;;;;;;63.08;22.77;;;3.10;99.90;;;-144.05;85.82;125687.94;5000076;28;20102;-86
2022/12/06 09:32:40;;;;;;;64.93;22.30;;;3.20;99.90;;;-144.05;85.74;125687.94;5013949;28;20074;-85
2022/12/06 09:35:06;;;;;;;53.22;20.10;;;3.20;99.90;;;-144.05;85.89;125687.94;4995073;28;20034;-86
2022/12/06 09:37:33;;;;;;;51.50;20.23;;;3.30;99.90;;;-144.05;85.70;125687.94;4995112;28;20031;-86
2022/12/06 09:40:13;;;;;;;52.03;20.00;;;3.30;99.90;;;-144.05;85.96;125687.94;5012503;28;20121;-83
2022/12/06 09:42:57;;;;;;;55.58;19.75;;;3.30;99.90;;;-144.05;85.86;125687.94;4996062;28;20375;-83
2022/12/06 09:46:03;;;;;;;51.95;19.42;;;3.30;99.90;;;-144.05;85.53;125687.94;4996298;28;20031;-85
2022/12/06 09:49:26;;;;;;;65.40;20.50;;;3.30;99.90;;;-144.05;85.96;125687.94;5012625;28;20030;-84
2022/12/06 09:52:19;;;;;;;52.30;18.60;;;3.40;99.90;;;-144.05;85.64;125687.94;4997246;28;20561;-84
2022/12/06 09:55:18;;;;;;;49.33;18.30;;;3.40;99.90;;;-144.05;85.81;125687.94;4998004;28;20030;-84
2022/12/06 09:58:06;;;;;;;44.75;17.90;;;3.50;99.90;;;-144.05;85.78;125687.94;4996148;28;20038;-86
2022/12/06 10:01:24;;;;;;;48.45;18.80;;;3.40;99.90;;;-144.05;85.78;125687.94;4995500;28;20036;-86
2022/12/06 10:04:46;;;;;;;51.33;19.67;;;3.40;99.90;;;-144.05;85.71;125687.94;4995358;28;20037;-85
2022/12/06 10:07:37;;;;;;;42.90;16.63;;;3.40;99.90;;;-144.05;85.56;125687.94;4995753;28;20057;-83
2022/12/06 10:10:34;;;;;;;48.78;19.15;;;3.40;99.90;;;-144.05;85.59;125687.94;4996785;28;20084;-86
2022/12/06 10:13:51;;;;;;;56.03;16.58;;;3.30;99.90;;;-144.05;85.52;125687.94;4995922;28;20034;-86
2022/12/06 10:16:43;;;;;;;;;;;3.30;99.90;;;-144.05;85.81;125687.94;4996997;28;20426;-87
2022/12/06 10:19:41;;;;;;;33.90;14.90;;;3.30;99.90;;;-144.05;85.87;125687.94;5001013;28;20393;-84
2022/12/06 10:22:50;;;;;;;38.28;15.40;;;3.30;99.90;;;-144.05;86.00;125687.94;5005952;28;20057;-83
2022/12/06 10:25:29;;;;;;;78.35;30.90;;;3.40;99.90;;;-144.05;85.96;125687.94;5003591;28;20099;-84
2022/12/06 10:28:20;;;;;;;54.35;23.02;;;3.50;99.90;;;-144.05;86.10;125687.94;5009444;28;20026;-83
2022/12/06 10:30:57;;;;;;;63.83;25.08;;;3.60;99.90;;;-144.05;86.03;125687.94;5010907;28;20011;-82
2022/12/06 10:34:21;;;;;;;52.75;22.27;;;3.70;99.90;;;-144.05;86.15;125687.94;5010995;28;20058;-85
2022/12/06 10:37:40;;;;;;;53.60;18.58;;;3.70;99.90;;;-144.05;86.21;125687.94;5002847;28;20030;-83
2022/12/06 10:40:23;;;;;;;40.05;15.02;;;3.70;99.90;;;-144.05;86.30;125687.94;5017462;28;20035;-83
2022/12/06 10:43:33;;;;;;;33.28;14.40;;;3.80;99.90;;;-144.05;86.37;125687.94;5001862;28;20056;-83
2022/12/06 10:49:48;;;;;;;28.00;13.60;;;3.90;99.90;;;-144.05;86.17;125687.94;5002445;28;20041;-82
2022/12/06 10:52:38;;;;;;;26.70;11.75;;;3.90;99.90;;;-144.05;86.07;125687.94;4997549;28;20422;-81
2022/12/06 10:55:10;;;;;;;30.05;12.77;;;4.00;99.90;;;-144.05;86.13;125687.94;5000744;28;20117;-84
2022/12/06 10:58:05;;;;;;;30.30;13.02;;;4.00;99.90;;;-144.05;86.04;125687.94;5001079;28;20475;-83
2022/12/06 11:00:56;;;;;;;24.02;11.65;;;4.00;99.90;;;-144.05;86.15;125687.94;5016845;28;20041;-83
2022/12/06 11:03:37;;;;;;;23.90;11.65;;;4.00;99.90;;;-144.05;85.70;125687.94;5001763;28;20498;-82
2022/12/06 11:06:31;;;;;;;27.60;12.75;;;4.00;99.90;;;-144.05;85.92;125687.94;5000499;28;20077;-83
2022/12/06 11:09:43;;;;;;;26.45;11.55;;;4.00;99.90;;;-144.05;85.92;125687.94;5001330;28;20106;-84
2022/12/06 11:12:34;;;;;;;25.50;10.90;;;4.10;99.90;;;-144.05;85.67;125687.94;4999711;28;20027;-82
2022/12/06 11:15:19;;;;;;;24.45;10.63;;;4.10;99.90;;;-144.05;85.77;125687.94;4999498;28;20174;-84